First Ferry Viii — VRS4306 — position and weather

sailwx.info

Track history (hours):
 
Tides and Currents Weather Stations Pressure Air Temp Water Temp Dewpoint Dewpoint Depression Visibility Wind Speed Wind Dir Waves Ship Positions

First Ferry Viii

Last reported at 2016-Feb-14 18:33 UTC. Time now 2016-Feb-14 19:00 UTC.
Position N 22°19' E 114°12'.

Length 36 m; draft 1.8 m.

Type: High speed craft. MMSI: 477995030.

Date/timePositionNaut miles runAvg speedWind from/ knotsBaromVisibWave heightAir tempDewpointWater temp
2016-Feb-14 18:33N 22°19' E 114°12'0 0.0
2016-Feb-14 17:34N 22°19' E 114°12'0 0.1
2016-Feb-14 16:33N 22°19' E 114°12'0 0.1
2016-Feb-14 15:34N 22°19' E 114°12'0 0.0
2016-Feb-14 14:34N 22°19' E 114°12'0 0.0
2016-Feb-14 13:34N 22°19' E 114°12'8 1.9
2016-Feb-14 09:20N 22°15' E 114°04'5 6.9
2016-Feb-14 08:33N 22°17' E 114°10'5 4.4
2016-Feb-14 07:19N 22°15' E 114°04'810.4
2016-Feb-14 06:33N 22°19' E 114°12'0 0.0
2016-Feb-14 05:33N 22°19' E 114°12'0 0.0
2016-Feb-14 04:33N 22°19' E 114°12'0 0.0
2016-Feb-14 03:33N 22°19' E 114°12'0 0.0
2016-Feb-14 02:33N 22°19' E 114°12'7 3.5
2016-Feb-14 00:28N 22°16' E 114°05'5 5.6
2016-Feb-13 23:33N 22°19' E 114°09'2 1.8
2016-Feb-13 22:34N 22°17' E 114°08'4 0.6
2016-Feb-13 16:05N 22°16' E 114°04'5 9.9
2016-Feb-13 15:33N 22°17' E 114°10'5 4.2
2016-Feb-13 14:20N 22°16' E 114°04'5 6.6
2016-Feb-13 13:33N 22°17' E 114°10'5 4.2
2016-Feb-13 12:20N 22°16' E 114°04'4 5.3
2016-Feb-13 11:33N 22°18' E 114°08'1 1.3
2016-Feb-13 10:32N 22°17' E 114°07'3 1.3
2016-Feb-13 08:34N 22°17' E 114°10'5 3.3
2016-Feb-13 07:05N 22°16' E 114°05'5 9.3
2016-Feb-13 06:33N 22°17' E 114°10'2 2.4
2016-Feb-13 05:33N 22°19' E 114°12'0 0.0
2016-Feb-13 04:33N 22°19' E 114°12'0 0.0
2016-Feb-13 03:33N 22°19' E 114°12'3 3.0
2016-Feb-13 02:33N 22°20' E 114°09'2 1.1
2016-Feb-13 00:34N 22°18' E 114°08'4 3.4
2016-Feb-12 23:28N 22°17' E 114°05'5 0.6
2016-Feb-12 15:33N 22°17' E 114°10'5 4.0
2016-Feb-12 14:18N 22°16' E 114°04'5 6.4
2016-Feb-12 13:34N 22°17' E 114°09'3 2.6
2016-Feb-12 12:15N 22°17' E 114°06'3 3.6
2016-Feb-12 11:33N 22°18' E 114°08'2 1.8
2016-Feb-12 10:33N 22°17' E 114°06'4 2.6
2016-Feb-12 09:07N 22°15' E 114°03'611.3
2016-Feb-12 08:33N 22°17' E 114°10'4 2.8
2016-Feb-12 07:04N 22°16' E 114°05'4 8.5
2016-Feb-12 06:33N 22°17' E 114°10'2 2.4
2016-Feb-12 05:33N 22°19' E 114°12'0 0.0
2016-Feb-12 04:33N 22°19' E 114°12'0 0.0
2016-Feb-12 03:34N 22°19' E 114°12'0 0.0
2016-Feb-12 02:33N 22°19' E 114°12'3 1.3
2016-Feb-12 00:33N 22°17' E 114°10'7 6.5
2016-Feb-11 23:32N 22°16' E 114°03'7 0.8
2016-Feb-11 15:33N 22°17' E 114°10'3 2.3
2016-Feb-11 14:13N 22°17' E 114°06'3 4.6
2016-Feb-11 13:33N 22°17' E 114°10'5 3.6
2016-Feb-11 12:18N 22°16' E 114°05'4 5.6
2016-Feb-11 11:33N 22°17' E 114°09'3 2.8
2016-Feb-11 10:33N 22°17' E 114°06'2 1.3
2016-Feb-11 09:04N 22°16' E 114°05'5 9.6
2016-Feb-11 08:33N 22°17' E 114°10'0 0.0
2016-Feb-11 06:33N 22°17' E 114°10'3 2.5
2016-Feb-11 05:33N 22°19' E 114°12'0 0.0
2016-Feb-11 04:33N 22°19' E 114°12'0 0.0
2016-Feb-11 03:33N 22°19' E 114°12'3 2.8
2016-Feb-11 02:32N 22°20' E 114°09'3 1.3
2016-Feb-11 00:34N 22°17' E 114°10'4 3.8
2016-Feb-10 23:25N 22°17' E 114°05'2 0.2
2016-Feb-10 16:14N 22°16' E 114°04'5 8.0
2016-Feb-10 15:34N 22°17' E 114°10'4 3.6
2016-Feb-10 14:18N 22°16' E 114°05'4 6.0
2016-Feb-10 13:33N 22°17' E 114°10'5 3.5
2016-Feb-10 12:17N 22°16' E 114°05'5 6.2
2016-Feb-10 11:33N 22°17' E 114°10'6 4.7
2016-Feb-10 10:21N 22°15' E 114°04'6 7.3
2016-Feb-10 09:33N 22°17' E 114°10'5 3.5
2016-Feb-10 08:10N 22°16' E 114°05'5 8.0
2016-Feb-10 07:33N 22°17' E 114°10'0 0.1
2016-Feb-10 05:34N 22°17' E 114°09'0 0.1
2016-Feb-10 03:34N 22°17' E 114°09'5 3.4
2016-Feb-10 02:12N 22°16' E 114°05'5 7.8
2016-Feb-10 01:33N 22°17' E 114°10'2 2.4
2016-Feb-10 00:34N 22°19' E 114°12'0 0.0
2016-Feb-09 23:33N 22°19' E 114°12'3 2.6
2016-Feb-09 22:34N 22°17' E 114°09'5 0.8
2016-Feb-09 16:14N 22°16' E 114°04'5 7.7
2016-Feb-09 15:33N 22°17' E 114°10'6 4.5
2016-Feb-09 14:19N 22°15' E 114°04'6 7.4
2016-Feb-09 13:34N 22°17' E 114°10'5 1.6
2016-Feb-09 10:20N 22°16' E 114°04'5 6.6
2016-Feb-09 09:33N 22°17' E 114°10'5 3.5
2016-Feb-09 08:08N 22°16' E 114°04'5 8.8
2016-Feb-09 07:33N 22°17' E 114°10'5 3.4
2016-Feb-09 06:06N 22°16' E 114°05'5 8.8
2016-Feb-09 05:33N 22°17' E 114°10'5 3.3
2016-Feb-09 04:07N 22°16' E 114°05'5 8.4
2016-Feb-09 03:34N 22°17' E 114°09'4 2.7
2016-Feb-09 02:10N 22°17' E 114°05'4 6.4
2016-Feb-09 01:34N 22°17' E 114°10'5 3.9
2016-Feb-09 00:18N 22°16' E 114°05'5 7.3
2016-Feb-08 23:33N 22°20' E 114°09'2 2.3
2016-Feb-08 22:34N 22°17' E 114°10'6 1.0
2016-Feb-08 16:16N 22°15' E 114°03'6 9.2
2016-Feb-08 15:34N 22°17' E 114°10'5 4.1
2016-Feb-08 14:19N 22°16' E 114°04'5 6.6
2016-Feb-08 13:33N 22°17' E 114°10'5 4.1
2016-Feb-08 12:19N 22°16' E 114°04'5 6.6
2016-Feb-08 11:34N 22°17' E 114°09'5 4.0
2016-Feb-08 10:18N 22°16' E 114°04'5 6.5
2016-Feb-08 09:33N 22°17' E 114°09'5 3.8
2016-Feb-08 08:12N 22°16' E 114°04'5 8.2
2016-Feb-08 07:34N 22°17' E 114°10'5 4.3
2016-Feb-08 06:19N 22°16' E 114°04'5 7.0
2016-Feb-08 05:34N 22°17' E 114°10'5 3.5
2016-Feb-08 04:09N 22°16' E 114°05'5 7.9
2016-Feb-08 03:34N 22°17' E 114°09'5 4.0
2016-Feb-08 02:19N 22°16' E 114°04'6 8.1
2016-Feb-08 01:33N 22°18' E 114°11'2 1.6
2016-Feb-08 00:33N 22°19' E 114°12'0 0.0
2016-Feb-07 23:34N 22°19' E 114°12'3 2.6
2016-Feb-07 22:34N 22°17' E 114°09'5 0.8
2016-Feb-07 16:12N 22°16' E 114°05'5 7.7
2016-Feb-07 15:33N 22°17' E 114°10'5 4.6
2016-Feb-07 14:22N 22°15' E 114°04'5 6.7
2016-Feb-07 13:33N 22°17' E 114°10'5 4.3
2016-Feb-07 12:20N 22°16' E 114°04'5 6.9
2016-Feb-07 11:34N 22°17' E 114°10'5 4.3
2016-Feb-07 10:21N 22°16' E 114°04'5 6.6
2016-Feb-07 09:33N 22°17' E 114°10'4 3.0
2016-Feb-07 08:16N 22°17' E 114°06'4 5.3
2016-Feb-07 07:34N 22°18' E 114°09'3 2.4
2016-Feb-07 06:15N 22°17' E 114°06'3 4.8
2016-Feb-07 05:33N 22°17' E 114°10'4 3.4
2016-Feb-07 04:17N 22°16' E 114°05'5 6.3
2016-Feb-07 03:33N 22°19' E 114°09'1 1.0
2016-Feb-07 02:33N 22°20' E 114°09'0 0.0
2016-Feb-07 01:32N 22°20' E 114°09'2 2.4
2016-Feb-07 00:33N 22°17' E 114°10'5 3.9
2016-Feb-06 23:18N 22°16' E 114°05'5 6.7
2016-Feb-06 22:33N 22°17' E 114°10'5 0.8
2016-Feb-06 16:04N 22°16' E 114°04'510.3
2016-Feb-06 15:33N 22°17' E 114°10'4 3.3
2016-Feb-06 14:16N 22°16' E 114°05'5 6.3
2016-Feb-06 13:33N 22°17' E 114°10'3 2.7
2016-Feb-06 12:33N 22°20' E 114°09'0 0.0
2016-Feb-06 11:33N 22°20' E 114°09'2 1.5
2016-Feb-06 10:33N 22°18' E 114°09'6 3.8
2016-Feb-06 09:03N 22°15' E 114°04'611.2
2016-Feb-06 08:34N 22°17' E 114°10'3 2.5
2016-Feb-06 07:33N 22°20' E 114°09'0 0.0
2016-Feb-06 06:33N 22°20' E 114°09'0 0.0
2016-Feb-06 05:33N 22°20' E 114°09'0 0.0
2016-Feb-06 04:32N 22°20' E 114°09'0 0.0
2016-Feb-06 03:32N 22°20' E 114°09'0 0.0
2016-Feb-06 02:33N 22°20' E 114°09'2 1.2
2016-Feb-06 00:34N 22°17' E 114°10'7 7.4
2016-Feb-05 23:33N 22°16' E 114°02'3 0.3
2016-Feb-05 16:03N 22°16' E 114°04'5 9.8
2016-Feb-05 15:34N 22°17' E 114°09'5 4.0
2016-Feb-05 14:17N 22°16' E 114°04'5 7.2
2016-Feb-05 13:33N 22°17' E 114°10'5 4.2
2016-Feb-05 12:20N 22°16' E 114°04'4 4.6
2016-Feb-05 11:33N 22°17' E 114°08'0 0.2
2016-Feb-05 10:33N 22°18' E 114°08'3 1.7
2016-Feb-05 09:04N 22°16' E 114°05'4 8.1
2016-Feb-05 08:33N 22°17' E 114°10'5 3.1
2016-Feb-05 07:03N 22°16' E 114°05'5 9.3
2016-Feb-05 06:33N 22°17' E 114°10'3 2.6
2016-Feb-05 05:33N 22°19' E 114°12'0 0.0
2016-Feb-05 04:33N 22°19' E 114°12'0 0.0
2016-Feb-05 03:34N 22°19' E 114°12'3 2.7
2016-Feb-05 02:33N 22°20' E 114°09'2 1.2
2016-Feb-05 00:34N 22°17' E 114°10'7 6.3
2016-Feb-04 23:31N 22°16' E 114°03'  
Track history (hours):
 
Tides and Currents Weather Stations Pressure Air Temp Water Temp Dewpoint Dewpoint Depression Visibility Wind Speed Wind Dir Waves Ship Positions

First Ferry Viii

Last reported at 2016-Feb-14 18:33 UTC. Time now 2016-Feb-14 19:00 UTC.
Position N 22°19' E 114°12'.

Length 36 m; draft 1.8 m.

Type: High speed craft. MMSI: 477995030.

Date/timePositionNaut miles runAvg speedWind from/ knotsBaromVisibWave heightAir tempDewpointWater temp
2016-Feb-14 18:33N 22°19' E 114°12'0 0.0
2016-Feb-14 17:34N 22°19' E 114°12'0 0.1
2016-Feb-14 16:33N 22°19' E 114°12'0 0.1
2016-Feb-14 15:34N 22°19' E 114°12'0 0.0
2016-Feb-14 14:34N 22°19' E 114°12'0 0.0
2016-Feb-14 13:34N 22°19' E 114°12'8 1.9
2016-Feb-14 09:20N 22°15' E 114°04'5 6.9
2016-Feb-14 08:33N 22°17' E 114°10'5 4.4
2016-Feb-14 07:19N 22°15' E 114°04'810.4
2016-Feb-14 06:33N 22°19' E 114°12'0 0.0
2016-Feb-14 05:33N 22°19' E 114°12'0 0.0
2016-Feb-14 04:33N 22°19' E 114°12'0 0.0
2016-Feb-14 03:33N 22°19' E 114°12'0 0.0
2016-Feb-14 02:33N 22°19' E 114°12'7 3.5
2016-Feb-14 00:28N 22°16' E 114°05'5 5.6
2016-Feb-13 23:33N 22°19' E 114°09'2 1.8
2016-Feb-13 22:34N 22°17' E 114°08'4 0.6
2016-Feb-13 16:05N 22°16' E 114°04'5 9.9
2016-Feb-13 15:33N 22°17' E 114°10'5 4.2
2016-Feb-13 14:20N 22°16' E 114°04'5 6.6
2016-Feb-13 13:33N 22°17' E 114°10'5 4.2
2016-Feb-13 12:20N 22°16' E 114°04'4 5.3
2016-Feb-13 11:33N 22°18' E 114°08'1 1.3
2016-Feb-13 10:32N 22°17' E 114°07'3 1.3
2016-Feb-13 08:34N 22°17' E 114°10'5 3.3
2016-Feb-13 07:05N 22°16' E 114°05'5 9.3
2016-Feb-13 06:33N 22°17' E 114°10'2 2.4
2016-Feb-13 05:33N 22°19' E 114°12'0 0.0
2016-Feb-13 04:33N 22°19' E 114°12'0 0.0
2016-Feb-13 03:33N 22°19' E 114°12'3 3.0
2016-Feb-13 02:33N 22°20' E 114°09'2 1.1
2016-Feb-13 00:34N 22°18' E 114°08'4 3.4
2016-Feb-12 23:28N 22°17' E 114°05'5 0.6
2016-Feb-12 15:33N 22°17' E 114°10'5 4.0
2016-Feb-12 14:18N 22°16' E 114°04'5 6.4
2016-Feb-12 13:34N 22°17' E 114°09'3 2.6
2016-Feb-12 12:15N 22°17' E 114°06'3 3.6
2016-Feb-12 11:33N 22°18' E 114°08'2 1.8
2016-Feb-12 10:33N 22°17' E 114°06'4 2.6
2016-Feb-12 09:07N 22°15' E 114°03'611.3
2016-Feb-12 08:33N 22°17' E 114°10'4 2.8
2016-Feb-12 07:04N 22°16' E 114°05'4 8.5
2016-Feb-12 06:33N 22°17' E 114°10'2 2.4
2016-Feb-12 05:33N 22°19' E 114°12'0 0.0
2016-Feb-12 04:33N 22°19' E 114°12'0 0.0
2016-Feb-12 03:34N 22°19' E 114°12'0 0.0
2016-Feb-12 02:33N 22°19' E 114°12'3 1.3
2016-Feb-12 00:33N 22°17' E 114°10'7 6.5
2016-Feb-11 23:32N 22°16' E 114°03'7 0.8
2016-Feb-11 15:33N 22°17' E 114°10'3 2.3
2016-Feb-11 14:13N 22°17' E 114°06'3 4.6
2016-Feb-11 13:33N 22°17' E 114°10'5 3.6
2016-Feb-11 12:18N 22°16' E 114°05'4 5.6
2016-Feb-11 11:33N 22°17' E 114°09'3 2.8
2016-Feb-11 10:33N 22°17' E 114°06'2 1.3
2016-Feb-11 09:04N 22°16' E 114°05'5 9.6
2016-Feb-11 08:33N 22°17' E 114°10'0 0.0
2016-Feb-11 06:33N 22°17' E 114°10'3 2.5
2016-Feb-11 05:33N 22°19' E 114°12'0 0.0
2016-Feb-11 04:33N 22°19' E 114°12'0 0.0
2016-Feb-11 03:33N 22°19' E 114°12'3 2.8
2016-Feb-11 02:32N 22°20' E 114°09'3 1.3
2016-Feb-11 00:34N 22°17' E 114°10'4 3.8
2016-Feb-10 23:25N 22°17' E 114°05'2 0.2
2016-Feb-10 16:14N 22°16' E 114°04'5 8.0
2016-Feb-10 15:34N 22°17' E 114°10'4 3.6
2016-Feb-10 14:18N 22°16' E 114°05'4 6.0
2016-Feb-10 13:33N 22°17' E 114°10'5 3.5
2016-Feb-10 12:17N 22°16' E 114°05'5 6.2
2016-Feb-10 11:33N 22°17' E 114°10'6 4.7
2016-Feb-10 10:21N 22°15' E 114°04'6 7.3
2016-Feb-10 09:33N 22°17' E 114°10'5 3.5
2016-Feb-10 08:10N 22°16' E 114°05'5 8.0
2016-Feb-10 07:33N 22°17' E 114°10'0 0.1
2016-Feb-10 05:34N 22°17' E 114°09'0 0.1
2016-Feb-10 03:34N 22°17' E 114°09'5 3.4
2016-Feb-10 02:12N 22°16' E 114°05'5 7.8
2016-Feb-10 01:33N 22°17' E 114°10'2 2.4
2016-Feb-10 00:34N 22°19' E 114°12'0 0.0
2016-Feb-09 23:33N 22°19' E 114°12'3 2.6
2016-Feb-09 22:34N 22°17' E 114°09'5 0.8
2016-Feb-09 16:14N 22°16' E 114°04'5 7.7
2016-Feb-09 15:33N 22°17' E 114°10'6 4.5
2016-Feb-09 14:19N 22°15' E 114°04'6 7.4
2016-Feb-09 13:34N 22°17' E 114°10'5 1.6
2016-Feb-09 10:20N 22°16' E 114°04'5 6.6
2016-Feb-09 09:33N 22°17' E 114°10'5 3.5
2016-Feb-09 08:08N 22°16' E 114°04'5 8.8
2016-Feb-09 07:33N 22°17' E 114°10'5 3.4
2016-Feb-09 06:06N 22°16' E 114°05'5 8.8
2016-Feb-09 05:33N 22°17' E 114°10'5 3.3
2016-Feb-09 04:07N 22°16' E 114°05'5 8.4
2016-Feb-09 03:34N 22°17' E 114°09'4 2.7
2016-Feb-09 02:10N 22°17' E 114°05'4 6.4
2016-Feb-09 01:34N 22°17' E 114°10'5 3.9
2016-Feb-09 00:18N 22°16' E 114°05'5 7.3
2016-Feb-08 23:33N 22°20' E 114°09'2 2.3
2016-Feb-08 22:34N 22°17' E 114°10'6 1.0
2016-Feb-08 16:16N 22°15' E 114°03'6 9.2
2016-Feb-08 15:34N 22°17' E 114°10'5 4.1
2016-Feb-08 14:19N 22°16' E 114°04'5 6.6
2016-Feb-08 13:33N 22°17' E 114°10'5 4.1
2016-Feb-08 12:19N 22°16' E 114°04'5 6.6
2016-Feb-08 11:34N 22°17' E 114°09'5 4.0
2016-Feb-08 10:18N 22°16' E 114°04'5 6.5
2016-Feb-08 09:33N 22°17' E 114°09'5 3.8
2016-Feb-08 08:12N 22°16' E 114°04'5 8.2
2016-Feb-08 07:34N 22°17' E 114°10'5 4.3
2016-Feb-08 06:19N 22°16' E 114°04'5 7.0
2016-Feb-08 05:34N 22°17' E 114°10'5 3.5
2016-Feb-08 04:09N 22°16' E 114°05'5 7.9
2016-Feb-08 03:34N 22°17' E 114°09'5 4.0
2016-Feb-08 02:19N 22°16' E 114°04'6 8.1
2016-Feb-08 01:33N 22°18' E 114°11'2 1.6
2016-Feb-08 00:33N 22°19' E 114°12'0 0.0
2016-Feb-07 23:34N 22°19' E 114°12'3 2.6
2016-Feb-07 22:34N 22°17' E 114°09'5 0.8
2016-Feb-07 16:12N 22°16' E 114°05'5 7.7
2016-Feb-07 15:33N 22°17' E 114°10'5 4.6
2016-Feb-07 14:22N 22°15' E 114°04'5 6.7
2016-Feb-07 13:33N 22°17' E 114°10'5 4.3
2016-Feb-07 12:20N 22°16' E 114°04'5 6.9
2016-Feb-07 11:34N 22°17' E 114°10'5 4.3
2016-Feb-07 10:21N 22°16' E 114°04'5 6.6
2016-Feb-07 09:33N 22°17' E 114°10'4 3.0
2016-Feb-07 08:16N 22°17' E 114°06'4 5.3
2016-Feb-07 07:34N 22°18' E 114°09'3 2.4
2016-Feb-07 06:15N 22°17' E 114°06'3 4.8
2016-Feb-07 05:33N 22°17' E 114°10'4 3.4
2016-Feb-07 04:17N 22°16' E 114°05'5 6.3
2016-Feb-07 03:33N 22°19' E 114°09'1 1.0
2016-Feb-07 02:33N 22°20' E 114°09'0 0.0
2016-Feb-07 01:32N 22°20' E 114°09'2 2.4
2016-Feb-07 00:33N 22°17' E 114°10'5 3.9
2016-Feb-06 23:18N 22°16' E 114°05'5 6.7
2016-Feb-06 22:33N 22°17' E 114°10'5 0.8
2016-Feb-06 16:04N 22°16' E 114°04'510.3
2016-Feb-06 15:33N 22°17' E 114°10'4 3.3
2016-Feb-06 14:16N 22°16' E 114°05'5 6.3
2016-Feb-06 13:33N 22°17' E 114°10'3 2.7
2016-Feb-06 12:33N 22°20' E 114°09'0 0.0
2016-Feb-06 11:33N 22°20' E 114°09'2 1.5
2016-Feb-06 10:33N 22°18' E 114°09'6 3.8
2016-Feb-06 09:03N 22°15' E 114°04'611.2
2016-Feb-06 08:34N 22°17' E 114°10'3 2.5
2016-Feb-06 07:33N 22°20' E 114°09'0 0.0
2016-Feb-06 06:33N 22°20' E 114°09'0 0.0
2016-Feb-06 05:33N 22°20' E 114°09'0 0.0
2016-Feb-06 04:32N 22°20' E 114°09'0 0.0
2016-Feb-06 03:32N 22°20' E 114°09'0 0.0
2016-Feb-06 02:33N 22°20' E 114°09'2 1.2
2016-Feb-06 00:34N 22°17' E 114°10'7 7.4
2016-Feb-05 23:33N 22°16' E 114°02'3 0.3
2016-Feb-05 16:03N 22°16' E 114°04'5 9.8
2016-Feb-05 15:34N 22°17' E 114°09'5 4.0
2016-Feb-05 14:17N 22°16' E 114°04'5 7.2
2016-Feb-05 13:33N 22°17' E 114°10'5 4.2
2016-Feb-05 12:20N 22°16' E 114°04'4 4.6
2016-Feb-05 11:33N 22°17' E 114°08'0 0.2
2016-Feb-05 10:33N 22°18' E 114°08'3 1.7
2016-Feb-05 09:04N 22°16' E 114°05'4 8.1
2016-Feb-05 08:33N 22°17' E 114°10'5 3.1
2016-Feb-05 07:03N 22°16' E 114°05'5 9.3
2016-Feb-05 06:33N 22°17' E 114°10'3 2.6
2016-Feb-05 05:33N 22°19' E 114°12'0 0.0
2016-Feb-05 04:33N 22°19' E 114°12'0 0.0
2016-Feb-05 03:34N 22°19' E 114°12'3 2.7
2016-Feb-05 02:33N 22°20' E 114°09'2 1.2
2016-Feb-05 00:34N 22°17' E 114°10'7 6.3
2016-Feb-04 23:31N 22°16' E 114°03'  

Dump ship's entire track history